.
WxDataArchive / Data Records for 2007-08-27
2007-08-26 August 2007 2007-08-28

Data Records for Monday, 27 August 2007

Time	Temp	Chill	HIndex	Humid	Dewpt	 Wind 	HiWind	WindDir	Rain 	Barom 
-----	----	-----	------	-----	-----	------	------	-------	-----	----- 
00:00	58.9	58.9	58.9	94	57.2	0	0	---	0.00	30.074 
00:05	58.9	58.9	58.9	95	57.5	0	0	---	0.00	30.074 
00:10	58.9	58.9	58.9	95	57.5	0	0	---	0.00	30.074 
00:15	58.7	58.7	58.7	95	57.3	0	0	---	0.00	30.071 
00:20	58.6	58.6	58.6	95	57.2	0	0	---	0.00	30.071 
00:25	58.6	58.6	58.6	95	57.2	0	0	---	0.00	30.069 
00:30	58.4	58.4	58.4	95	57.0	0	0	---	0.00	30.070 
00:35	58.4	58.4	58.4	95	57.0	0	0	---	0.00	30.068 
00:40	58.3	58.3	58.3	95	56.9	0	0	---	0.00	30.067 
00:45	58.3	58.3	58.3	95	56.9	0	0	---	0.00	30.062 
00:50	58.1	58.1	58.1	95	56.7	0	0	---	0.00	30.062 
00:55	58.1	58.1	58.1	95	56.7	0	0	---	0.00	30.061 
01:00	58.0	58.0	58.0	95	56.6	0	0	---	0.00	30.061 
01:05	58.0	58.0	58.0	95	56.6	0	0	---	0.00	30.060 
01:10	57.8	57.8	57.8	95	56.4	0	0	---	0.00	30.059 
01:15	57.8	57.8	57.8	95	56.4	0	0	---	0.00	30.058 
01:20	57.6	57.6	57.6	95	56.2	0	0	---	0.00	30.057 
01:25	57.5	57.5	57.5	95	56.1	0	0	---	0.00	30.053 
01:30	57.5	57.5	57.5	95	56.1	0	0	---	0.00	30.053 
01:35	57.3	57.3	57.3	95	55.9	0	0	---	0.00	30.055 
01:40	57.2	57.2	57.2	95	55.8	0	0	---	0.00	30.054 
01:45	57.2	57.2	57.2	95	55.8	0	0	---	0.00	30.054 
01:50	57.0	57.0	57.0	95	55.6	0	0	---	0.00	30.052 
01:55	56.9	56.9	56.9	95	55.5	0	0	---	0.00	30.054 
02:00	56.9	56.9	56.9	95	55.5	0	0	---	0.00	30.050 
02:05	56.7	56.7	56.7	95	55.3	0	0	---	0.00	30.051 
02:10	56.7	56.7	56.7	95	55.3	0	0	---	0.00	30.047 
02:15	56.6	56.6	56.6	96	55.5	0	0	---	0.00	30.046 
02:20	56.6	56.6	56.6	96	55.5	0	0	---	0.00	30.046 
02:25	56.5	56.5	56.5	96	55.4	0	0	---	0.00	30.047 
02:30	56.5	56.5	56.5	96	55.4	0	0	---	0.00	30.050 
02:35	56.3	56.3	56.3	96	55.2	0	0	---	0.00	30.055 
02:40	56.3	56.3	56.3	96	55.2	0	0	---	0.00	30.057 
02:45	56.2	56.2	56.2	96	55.1	0	0	---	0.00	30.058 
02:50	56.2	56.2	56.2	96	55.1	0	0	---	0.00	30.059 
02:55	56.0	56.0	56.0	96	54.9	0	0	---	0.00	30.060 
03:00	56.0	56.0	56.0	96	54.9	0	0	---	0.00	30.062 
03:05	55.9	55.9	55.9	96	54.8	0	0	---	0.00	30.062 
03:10	55.9	55.9	55.9	96	54.8	0	0	---	0.00	30.065 
03:15	55.7	55.7	55.7	96	54.6	0	0	---	0.00	30.069 
03:20	55.7	55.7	55.7	96	54.6	0	0	---	0.00	30.069 
03:25	55.7	55.7	55.7	96	54.6	0	0	---	0.00	30.069 
03:30	55.7	55.7	55.7	96	54.6	0	0	---	0.00	30.070 
03:35	55.7	55.7	55.7	96	54.6	0	0	---	0.00	30.077 
03:40	55.6	55.6	55.6	96	54.5	0	0	---	0.00	30.076 
03:45	55.4	55.4	55.4	96	54.3	0	0	---	0.00	30.075 
03:50	55.4	55.4	55.4	96	54.3	0	0	---	0.00	30.076 
03:55	55.4	55.4	55.4	96	54.3	0	0	---	0.00	30.078 
04:00	55.4	55.4	55.4	97	54.6	0	0	---	0.00	30.079 
04:05	55.4	55.4	55.4	97	54.6	0	0	---	0.00	30.081 
04:10	55.3	55.3	55.3	97	54.5	0	0	---	0.00	30.083 
04:15	55.3	55.3	55.3	97	54.5	0	0	---	0.00	30.084 
04:20	55.3	55.3	55.3	97	54.5	0	0	---	0.00	30.087 
04:25	55.1	55.1	55.1	97	54.3	0	0	---	0.00	30.088 
04:30	55.1	55.1	55.1	97	54.3	0	0	---	0.00	30.086 
04:35	55.0	55.0	55.0	97	54.2	0	0	---	0.00	30.086 
04:40	55.0	55.0	55.0	97	54.2	0	0	---	0.00	30.088 
04:45	55.0	55.0	55.0	97	54.2	0	0	---	0.00	30.088 
04:50	54.8	54.8	54.8	97	54.0	0	0	---	0.00	30.085 
04:55	54.7	54.7	54.7	97	53.9	0	0	---	0.00	30.086 
05:00	54.7	54.7	54.7	97	53.9	0	0	---	0.00	30.089 
05:05	54.7	54.7	54.7	97	53.9	0	0	---	0.00	30.087 
05:10	54.5	54.5	54.5	97	53.7	0	0	---	0.00	30.084 
05:15	54.7	54.7	54.7	97	53.9	0	0	---	0.00	30.083 
05:20	54.8	54.8	54.8	97	54.0	0	0	---	0.00	30.083 
05:25	54.8	54.8	54.8	97	54.0	0	0	---	0.00	30.083 
05:30	54.8	54.8	54.8	97	54.0	0	0	---	0.00	30.081 
05:35	54.8	54.8	54.8	97	54.0	0	0	---	0.00	30.082 
05:40	55.1	55.1	55.1	97	54.3	0	0	---	0.00	30.083 
05:45	55.1	55.1	55.1	97	54.3	0	0	---	0.00	30.083 
05:50	55.0	55.0	55.0	97	54.2	0	0	---	0.00	30.083 
05:55	55.0	55.0	55.0	97	54.2	0	0	---	0.00	30.083 
06:00	55.0	55.0	55.0	97	54.2	0	0	---	0.00	30.083 
06:05	55.0	55.0	55.0	97	54.2	0	0	---	0.00	30.082 
06:10	55.1	55.1	55.1	97	54.3	0	1	90	0.00	30.081 
06:15	55.4	55.4	55.4	97	54.6	0	0	---	0.00	30.083 
06:20	55.6	55.6	55.6	98	55.0	0	0	---	0.00	30.082 
06:25	55.7	55.7	55.7	98	55.1	0	1	90	0.00	30.081 
06:30	55.9	55.9	55.9	98	55.3	0	0	---	0.00	30.080 
06:35	56.0	56.0	56.0	98	55.4	0	0	---	0.00	30.080 
06:40	56.2	56.2	56.2	98	55.6	0	0	---	0.00	30.078 
06:45	56.3	56.3	56.3	98	55.7	0	0	---	0.00	30.080 
06:50	56.6	56.6	56.6	98	56.0	0	0	---	0.00	30.079 
06:55	57.0	57.0	57.0	98	56.4	0	1	90	0.00	30.078 
07:00	57.5	57.5	57.5	98	56.9	0	1	90	0.00	30.078 
07:05	58.0	58.0	58.0	98	57.4	0	1	90	0.00	30.083 
07:10	58.6	58.6	58.6	98	58.0	0	1	90	0.00	30.083 
07:15	59.2	59.2	59.2	98	58.6	0	2	90	0.00	30.081 
07:20	59.6	59.6	59.6	98	59.0	0	3	90	0.00	30.077 
07:25	60.2	60.2	60.2	97	59.3	1	2	90	0.00	30.075 
07:30	60.9	60.9	60.9	96	59.7	0	2	90	0.00	30.074 
07:35	61.5	61.5	61.5	91	58.8	1	2	90	0.00	30.078 
07:40	62.3	62.3	62.3	89	59.0	1	2	90	0.00	30.079 
07:45	63.1	63.1	63.1	88	59.5	0	1	90	0.00	30.079 
07:50	63.5	63.5	63.5	84	58.6	1	2	90	0.00	30.080 
07:55	64.0	64.0	64.0	84	59.1	0	1	90	0.00	30.081 
08:00	64.2	64.2	64.2	84	59.3	0	1	90	0.00	30.081 
08:05	64.5	64.5	64.5	84	59.6	0	1	90	0.00	30.085 
08:10	64.8	64.8	64.8	84	59.8	0	2	90	0.00	30.086 
08:15	65.0	65.0	65.0	83	59.7	1	3	90	0.00	30.082 
08:20	65.2	65.2	65.2	83	59.9	1	3	90	0.00	30.083 
08:25	65.6	65.6	65.6	83	60.3	1	2	90	0.00	30.090 
08:30	66.1	66.1	66.1	81	60.1	1	3	90	0.00	30.095 
08:35	66.6	66.6	66.6	82	60.9	1	2	90	0.00	30.098 
08:40	66.9	66.9	66.9	79	60.2	1	3	90	0.00	30.097 
08:45	67.6	67.6	67.6	79	60.8	1	3	90	0.00	30.096 
08:50	68.3	68.3	68.3	78	61.2	1	3	90	0.00	30.096 
08:55	68.9	68.9	68.9	76	61.0	1	3	90	0.00	30.096 
09:00	69.4	69.4	69.4	75	61.1	1	2	90	0.00	30.100 
09:05	70.3	70.3	70.3	74	61.6	0	1	90	0.00	30.108 
09:10	70.9	70.9	70.9	73	61.8	1	3	90	0.00	30.109 
09:15	71.3	71.3	71.3	73	62.2	0	1	90	0.00	30.110 
09:20	72.1	72.1	72.1	70	61.8	0	1	90	0.00	30.106 
09:25	72.8	72.8	72.8	68	61.6	0	1	90	0.00	30.107 
09:30	73.5	73.5	73.5	67	61.9	0	2	90	0.00	30.107 
09:35	74.0	74.0	74.0	68	62.8	1	3	90	0.00	30.105 
09:40	73.9	73.9	73.9	67	62.2	1	4	90	0.00	30.107 
09:45	74.0	74.0	74.0	68	62.8	1	3	90	0.00	30.106 
09:50	74.4	74.4	74.4	67	62.7	1	4	90	0.00	30.107 
09:55	74.9	74.9	74.9	68	63.6	1	3	90	0.00	30.105 
10:00	74.7	74.7	74.7	67	63.0	2	4	90	0.00	30.101 
10:05	74.7	74.7	74.7	67	63.0	2	5	135	0.00	30.104 
10:10	74.7	74.7	74.7	69	63.8	2	4	90	0.00	30.106 
10:15	74.9	74.9	74.9	67	63.2	2	5	90	0.00	30.106 
10:20	75.3	75.3	77.0	70	64.8	1	3	90	0.00	30.108 
10:25	75.8	75.8	77.6	67	64.0	1	4	90	0.00	30.109 
10:30	76.3	76.3	78.0	68	64.9	1	4	90	0.00	30.108 
10:35	76.5	76.5	78.3	68	65.1	1	5	90	0.00	30.105 
10:40	76.7	76.7	78.5	65	64.0	1	4	112	0.00	30.109 
10:45	76.7	76.7	78.5	65	64.0	1	3	90	0.00	30.106 
10:50	77.2	77.2	79.0	65	64.5	1	4	112	0.00	30.106 
10:55	77.6	77.6	79.3	61	63.1	2	4	112	0.00	30.109 
11:00	77.6	77.6	79.4	65	64.9	1	3	112	0.00	30.104 
11:05	77.7	77.7	79.5	64	64.5	2	4	90	0.00	30.103 
11:10	77.7	77.7	79.5	65	65.0	1	6	90	0.00	30.099 
11:15	77.7	77.7	79.5	63	64.1	1	4	112	0.00	30.102 
11:20	78.3	78.3	80.1	62	64.2	1	4	112	0.00	30.097 
11:25	78.3	78.3	80.1	62	64.2	2	4	90	0.00	30.098 
11:30	78.3	78.3	80.2	65	65.5	1	4	90	0.00	30.097 
11:35	78.3	78.3	79.9	59	62.8	2	4	90	0.00	30.098 
11:40	78.3	78.3	79.9	58	62.3	2	5	112	0.00	30.095 
11:45	78.5	78.5	80.0	58	62.5	1	3	270	0.00	30.090 
11:50	78.6	78.6	79.9	54	60.5	1	3	270	0.00	30.089 
11:55	79.0	79.0	80.3	55	61.4	0	2	270	0.00	30.088 
12:00	79.2	79.2	80.4	54	61.1	0	1	270	0.00	30.092 
12:05	79.2	79.2	80.5	55	61.6	0	3	270	0.00	30.091 
12:10	79.2	79.2	80.5	55	61.6	1	3	0	0.00	30.093 
12:15	79.4	79.4	80.8	56	62.3	1	4	112	0.00	30.091 
12:20	79.9	79.9	81.6	59	64.3	0	2	112	0.00	30.089 
12:25	79.9	79.9	81.2	55	62.3	0	2	112	0.00	30.091 
12:30	79.9	79.9	81.0	53	61.2	1	3	112	0.00	30.094 
12:35	80.1	80.1	81.6	57	63.5	0	2	112	0.00	30.094 
12:40	80.7	80.7	82.4	58	64.5	0	2	112	0.00	30.094 
12:45	81.2	81.2	82.1	51	61.3	1	2	112	0.00	30.093 
12:50	81.1	81.1	81.7	49	60.1	1	3	112	0.00	30.090 
12:55	81.2	81.2	82.1	51	61.3	0	2	112	0.00	30.093 
13:00	80.7	80.7	82.0	55	63.0	0	1	112	0.00	30.095 
13:05	80.3	80.3	81.5	54	62.1	0	1	68	0.00	30.101 
13:10	80.5	80.5	81.4	51	60.7	1	2	45	0.00	30.100 
13:15	80.3	80.3	81.2	51	60.5	0	1	292	0.00	30.101 
13:20	80.7	80.7	81.8	53	62.0	1	3	270	0.00	30.093 
13:25	80.5	80.5	81.7	54	62.3	1	4	45	0.00	30.092 
13:30	80.3	80.3	81.3	52	61.0	2	4	90	0.00	30.089 
13:35	80.1	80.1	81.0	51	60.3	1	5	90	0.00	30.087 
13:40	80.5	80.5	81.8	55	62.8	0	2	90	0.00	30.084 
13:45	80.5	80.5	81.6	53	61.8	1	4	112	0.00	30.081 
13:50	80.5	80.5	81.3	50	60.1	1	5	90	0.00	30.080 
13:55	80.7	80.7	81.9	54	62.5	1	3	112	0.00	30.075 
14:00	81.2	81.2	82.5	54	62.9	1	4	112	0.00	30.074 
14:05	81.6	81.6	82.8	53	62.8	1	3	90	0.00	30.071 
14:10	81.8	81.8	83.0	53	63.0	1	4	90	0.00	30.071 
14:15	81.1	81.1	82.3	54	62.9	3	5	90	0.00	30.067 
14:20	80.7	80.7	82.2	56	63.5	1	5	90	0.00	30.065 
14:25	81.1	81.1	82.5	55	63.4	1	4	90	0.00	30.065 
14:30	81.1	81.1	82.0	51	61.2	2	5	90	0.00	30.067 
14:35	81.1	81.1	82.0	51	61.2	1	3	90	0.00	30.069 
14:40	81.2	81.2	82.2	52	61.9	1	4	112	0.00	30.067 
14:45	81.1	81.1	82.2	53	62.3	1	4	112	0.00	30.062 
14:50	80.7	80.7	81.7	52	61.4	0	2	112	0.00	30.062 
14:55	80.5	80.5	81.7	54	62.3	1	3	112	0.00	30.059 
15:00	79.9	79.9	81.2	55	62.3	2	4	112	0.00	30.058 
15:05	79.9	79.9	81.5	58	63.8	1	4	112	0.00	30.060 
15:10	80.1	80.1	81.4	55	62.4	0	1	112	0.00	30.060 
15:15	80.7	80.7	82.0	55	63.0	0	2	112	0.00	30.057 
15:20	80.9	80.9	81.9	52	61.6	1	3	112	0.00	30.055 
15:25	80.7	80.7	81.6	51	60.9	1	3	112	0.00	30.049 
15:30	80.3	80.3	81.5	54	62.1	1	2	112	0.00	30.046 
15:35	79.9	79.9	81.1	54	61.7	1	3	112	0.00	30.043 
15:40	80.1	80.1	81.5	56	63.0	1	3	112	0.00	30.036 
15:45	80.1	80.1	81.3	54	61.9	1	4	135	0.00	30.029 
15:50	80.1	80.1	81.4	55	62.4	1	3	112	0.00	30.029 
15:55	80.1	80.1	81.4	55	62.4	2	4	112	0.00	30.028 
16:00	80.3	80.3	81.5	54	62.1	2	4	112	0.00	30.026 
16:05	80.3	80.3	81.4	53	61.6	2	5	112	0.00	30.022 
16:10	79.8	79.8	81.1	55	62.2	2	4	90	0.00	30.020 
16:15	79.9	79.9	81.0	53	61.2	2	4	90	0.00	30.018 
16:20	80.3	80.3	81.4	53	61.6	2	4	112	0.00	30.015 
16:25	80.3	80.3	81.6	55	62.6	1	3	112	0.00	30.016 
16:30	79.9	79.9	81.2	55	62.3	1	3	90	0.00	30.015 
16:35	79.6	79.6	81.1	57	63.0	1	4	90	0.00	30.017 
16:40	79.2	79.2	80.6	56	62.1	1	5	90	0.00	30.014 
16:45	79.0	79.0	80.4	56	61.9	1	4	90	0.00	30.013 
16:50	78.8	78.8	80.3	57	62.3	2	5	90	0.00	30.005 
16:55	78.8	78.8	80.2	56	61.8	1	3	90	0.00	30.000 
17:00	79.0	79.0	80.4	56	61.9	1	3	90	0.00	30.002 
17:05	79.4	79.4	80.6	54	61.3	1	2	90	0.00	30.007 
17:10	79.8	79.8	81.3	57	63.2	1	3	90	0.00	30.012 
17:15	79.9	79.9	81.2	55	62.3	1	3	90	0.00	30.014 
17:20	79.8	79.8	81.2	56	62.7	2	4	90	0.00	30.013 
17:25	79.2	79.2	80.7	58	63.1	2	4	90	0.00	30.005 
17:30	78.8	78.8	80.3	58	62.8	2	5	90	0.00	29.996 
17:35	78.6	78.6	80.1	58	62.6	2	5	90	0.00	29.986 
17:40	78.5	78.5	80.1	59	63.0	1	4	90	0.00	29.998 
17:45	78.3	78.3	79.9	59	62.8	1	4	112	0.00	29.999 
17:50	78.3	78.3	80.0	61	63.7	1	5	68	0.00	29.998 
17:55	78.1	78.1	79.7	59	62.6	1	4	135	0.00	29.999 
18:00	77.9	77.9	79.6	60	62.9	0	1	135	0.00	30.009 
18:05	77.9	77.9	79.6	62	63.8	0	2	135	0.00	30.009 
18:10	77.7	77.7	79.4	61	63.2	0	1	135	0.00	30.011 
18:15	77.6	77.6	79.3	61	63.1	1	3	135	0.00	29.999 
18:20	77.4	77.4	79.1	61	62.9	1	4	135	0.00	30.006 
18:25	77.4	77.4	79.1	61	62.9	1	3	90	0.00	30.011 
18:30	77.2	77.2	79.0	62	63.2	0	1	90	0.00	30.011 
18:35	77.2	77.2	79.0	62	63.2	0	2	90	0.00	30.012 
18:40	76.8	76.8	78.6	63	63.2	0	1	90	0.00	30.012 
18:45	76.7	76.7	78.5	64	63.6	0	2	90	0.00	30.010 
18:50	76.5	76.5	78.3	65	63.8	0	1	90	0.00	30.012 
18:55	76.3	76.3	78.1	65	63.6	0	1	90	0.00	30.011 
19:00	76.0	76.0	77.8	67	64.2	0	1	90	0.00	30.011 
19:05	75.4	75.4	77.2	68	64.1	0	1	90	0.00	30.012 
19:10	75.1	75.1	76.9	69	64.2	0	1	90	0.00	30.011 
19:15	74.7	74.7	74.7	70	64.2	0	0	---	0.00	30.016 
19:20	74.2	74.2	74.2	70	63.8	0	0	---	0.00	30.020 
19:25	73.9	73.9	73.9	71	63.9	0	0	---	0.00	30.021 
19:30	73.5	73.5	73.5	72	63.9	0	0	---	0.00	30.022 
19:35	73.2	73.2	73.2	72	63.6	0	0	---	0.00	30.024 
19:40	72.8	72.8	72.8	73	63.6	0	0	---	0.00	30.025 
19:45	72.5	72.5	72.5	74	63.7	0	0	---	0.00	30.027 
19:50	72.1	72.1	72.1	75	63.7	0	0	---	0.00	30.026 
19:55	71.8	71.8	71.8	75	63.4	0	0	---	0.00	30.026 
20:00	71.5	71.5	71.5	76	63.5	0	0	---	0.00	30.027 
20:05	71.1	71.1	71.1	76	63.1	0	0	---	0.00	30.024 
20:10	70.9	70.9	70.9	77	63.3	0	0	---	0.00	30.024 
20:15	70.8	70.8	70.8	78	63.6	0	0	---	0.00	30.024 
20:20	70.4	70.4	70.4	78	63.2	0	0	---	0.00	30.026 
20:25	70.3	70.3	70.3	78	63.1	0	0	---	0.00	30.029 
20:30	70.1	70.1	70.1	79	63.3	0	0	---	0.00	30.036 
20:35	69.9	69.9	69.9	79	63.1	0	0	---	0.00	30.037 
20:40	69.8	69.8	69.8	80	63.3	0	0	---	0.00	30.039 
20:45	69.6	69.6	69.6	80	63.1	0	0	---	0.00	30.039 
20:50	69.4	69.4	69.4	80	63.0	0	1	90	0.00	30.041 
20:55	69.4	69.4	69.4	79	62.6	0	1	90	0.00	30.041 
21:00	69.6	69.6	69.6	78	62.4	0	2	90	0.00	30.040 
21:05	69.8	69.8	69.8	78	62.6	0	1	90	0.00	30.035 
21:10	69.8	69.8	69.8	78	62.6	0	0	---	0.00	30.037 
21:15	69.6	69.6	69.6	78	62.4	0	0	---	0.00	30.038 
21:20	69.4	69.4	69.4	78	62.2	0	0	---	0.00	30.038 
21:25	69.4	69.4	69.4	78	62.2	0	0	---	0.00	30.037 
21:30	69.4	69.4	69.4	77	61.9	0	0	---	0.00	30.037 
21:35	69.4	69.4	69.4	78	62.2	0	1	90	0.00	30.038 
21:40	69.4	69.4	69.4	77	61.9	0	2	90	0.00	30.038 
21:45	69.4	69.4	69.4	77	61.9	0	2	90	0.00	30.039 
21:50	69.4	69.4	69.4	78	62.2	0	1	90	0.00	30.039 
21:55	69.3	69.3	69.3	78	62.1	0	2	90	0.00	30.039 
22:00	69.1	69.1	69.1	78	61.9	0	1	90	0.00	30.043 
22:05	68.9	68.9	68.9	79	62.1	0	0	---	0.00	30.042 
22:10	68.8	68.8	68.8	79	62.0	0	0	---	0.00	30.046 
22:15	68.4	68.4	68.4	80	62.0	0	0	---	0.00	30.047 
22:20	68.3	68.3	68.3	81	62.2	0	0	---	0.00	30.049 
22:25	68.1	68.1	68.1	81	62.0	0	1	90	0.00	30.050 
22:30	68.3	68.3	68.3	81	62.2	0	2	90	0.00	30.050 
22:35	68.3	68.3	68.3	81	62.2	0	2	90	0.00	30.051 
22:40	68.1	68.1	68.1	82	62.4	0	2	90	0.00	30.052 
22:45	68.1	68.1	68.1	83	62.7	1	2	90	0.00	30.051 
22:50	68.1	68.1	68.1	83	62.7	0	2	90	0.00	30.054 
22:55	68.1	68.1	68.1	84	63.1	0	1	90	0.00	30.056 
23:00	67.9	67.9	67.9	84	62.9	0	2	90	0.00	30.055 
23:05	67.8	67.8	67.8	84	62.8	1	5	90	0.00	30.056 
23:10	67.8	67.8	67.8	84	62.8	1	3	90	0.00	30.054 
23:15	67.8	67.8	67.8	85	63.1	1	2	90	0.00	30.052 
23:20	67.6	67.6	67.6	85	62.9	0	2	90	0.00	30.053 
23:25	67.4	67.4	67.4	86	63.1	0	3	68	0.00	30.053 
23:30	67.4	67.4	67.4	86	63.1	1	2	68	0.00	30.053 
23:35	67.3	67.3	67.3	86	63.0	1	2	68	0.00	30.053 
23:40	67.1	67.1	67.1	87	63.1	0	2	68	0.00	30.052 
23:45	67.1	67.1	67.1	87	63.1	1	4	68	0.00	30.052 
23:50	66.9	66.9	66.9	87	62.9	1	2	68	0.00	30.053 
23:55	66.9	66.9	66.9	87	62.9	0	1	68	0.00	30.052 

CoCoRaHS
IN-AL-39
A2 Web Hosting
Creative Commons License
GoDaddy
Look for:

loaded 2017-12-13 15:49:29 • last modified 2010-11-18 10:43:29
Privacy PolicyDisclaimer
• wx.awcolley.com is powered by PmWiki v.2002016 •
• all content (unless otherwise noted) © 2017 A W Colley